createdAt,value
2023-02-26T13:28:04.422Z,13.85
2023-02-26T13:30:33.997Z,7.45
2023-02-26T13:33:02.941Z,8.07
2023-02-26T13:35:33.272Z,7.00
2023-02-26T13:40:37.857Z,5.95
2023-02-26T13:43:10.541Z,5.80
2023-02-26T13:45:46.206Z,7.53
2023-02-26T13:48:17.998Z,9.98
2023-02-26T13:50:50.420Z,8.10
2023-02-26T13:53:43.815Z,8.95
2023-02-26T13:56:14.930Z,12.10
2023-02-26T13:58:44.391Z,4.78
2023-02-26T14:01:15.750Z,5.88
2023-02-26T14:03:46.660Z,8.75
2023-02-26T14:06:24.936Z,8.02
2023-02-26T14:08:54.744Z,7.70
2023-02-26T14:11:29.042Z,5.85
2023-02-26T14:14:15.219Z,7.38
2023-02-26T14:16:45.535Z,4.53
2023-02-26T14:19:21.202Z,4.90
2023-02-26T14:21:50.152Z,5.32
2023-02-26T14:24:19.968Z,7.03
2023-02-26T14:26:51.876Z,6.15
2023-02-26T14:29:24.115Z,4.68
2023-02-26T14:31:56.124Z,6.20
2023-02-26T14:34:25.277Z,5.78
2023-02-26T14:36:55.174Z,6.50
2023-02-26T14:39:28.589Z,4.97
2023-02-26T14:41:58.524Z,4.55
2023-02-26T14:44:27.553Z,6.57
2023-02-26T14:46:56.412Z,6.28
2023-02-26T14:49:27.224Z,4.47
2023-02-26T14:52:03.645Z,4.85
2023-02-26T14:54:36.174Z,5.22
2023-02-26T14:57:04.987Z,6.18
2023-02-26T14:59:48.146Z,4.75
2023-02-26T15:02:29.546Z,5.55
2023-02-26T15:05:07.933Z,5.10
2023-02-26T15:07:43.549Z,4.78
2023-02-26T15:10:15.876Z,5.03
2023-02-26T15:12:49.592Z,5.85
2023-02-26T15:15:23.435Z,4.13
2023-02-26T15:17:58.776Z,4.50
2023-02-26T15:20:31.246Z,4.93
2023-02-26T15:23:06.544Z,3.90
2023-02-26T15:25:35.946Z,3.83
2023-02-26T15:28:04.318Z,4.05
2023-02-26T15:30:32.215Z,3.13
2023-02-26T15:33:04.144Z,3.85
2023-02-26T15:35:32.447Z,3.90
2023-02-26T15:38:01.522Z,4.55
2023-02-26T15:40:31.112Z,3.28
2023-02-26T15:42:59.773Z,4.07
2023-02-26T15:45:28.342Z,4.00
2023-02-26T15:47:57.310Z,3.97
2023-02-26T15:50:28.422Z,4.35
2023-02-26T15:52:57.081Z,5.82
2023-02-26T15:55:25.047Z,7.55
2023-02-26T15:57:52.825Z,7.68
2023-02-26T16:00:24.629Z,3.40
2023-02-26T16:02:53.560Z,6.28
2023-02-26T16:05:21.082Z,6.70
2023-02-26T16:07:50.024Z,5.30
2023-02-26T16:10:20.930Z,5.47
2023-02-26T16:12:50.918Z,12.95
2023-02-26T16:15:23.430Z,16.50
2023-02-26T16:17:53.055Z,12.05
2023-02-26T16:20:21.850Z,8.25
2023-02-26T16:22:52.010Z,15.48
2023-02-26T16:25:21.430Z,18.27
2023-02-26T16:27:50.628Z,12.02
2023-02-26T16:30:19.661Z,9.55
2023-02-26T16:32:47.548Z,8.00
2023-02-26T16:35:17.594Z,8.20
2023-02-26T16:37:49.300Z,10.38
2023-02-26T16:40:20.209Z,6.75
2023-02-26T16:42:53.156Z,7.32
2023-02-26T16:45:23.460Z,7.35
2023-02-26T16:47:52.094Z,6.28
2023-02-26T16:50:20.785Z,10.73
2023-02-26T16:52:49.578Z,5.53
2023-02-26T16:55:18.581Z,9.02
2023-02-26T16:57:48.676Z,4.30
2023-02-26T17:00:19.989Z,4.30
2023-02-26T17:02:48.527Z,11.07
2023-02-26T17:05:18.893Z,7.93
2023-02-26T17:07:55.744Z,4.90
2023-02-26T17:10:24.920Z,5.18
2023-02-26T17:12:54.506Z,5.82
2023-02-26T17:15:27.431Z,8.63
2023-02-26T17:17:56.718Z,6.63
2023-02-26T17:20:24.428Z,5.68
2023-02-26T17:22:52.044Z,6.53
2023-02-26T17:25:20.749Z,9.73
2023-02-26T17:27:49.213Z,6.78
2023-02-26T17:30:20.052Z,7.57
2023-02-26T17:32:47.594Z,6.78
2023-02-26T17:35:15.908Z,6.75
2023-02-26T17:37:43.830Z,8.75
2023-02-26T17:40:19.352Z,5.97
2023-02-26T17:42:47.361Z,5.00
2023-02-26T17:45:15.560Z,5.95
2023-02-26T17:47:46.685Z,6.90
2023-02-26T17:50:24.797Z,6.40
2023-02-26T17:52:52.325Z,6.22
2023-02-26T17:55:19.816Z,7.07
2023-02-26T17:57:47.615Z,6.38
2023-02-26T18:00:16.095Z,5.93
2023-02-26T18:02:45.697Z,9.15
2023-02-26T18:05:13.217Z,4.63
2023-02-26T18:07:40.866Z,6.10
2023-02-26T18:10:09.097Z,5.18
2023-02-26T18:13:51.271Z,3.53
2023-02-26T18:16:20.386Z,4.13
2023-02-26T18:18:48.171Z,4.88
2023-02-26T18:21:15.687Z,3.95
2023-02-26T18:23:43.128Z,3.97
2023-02-26T18:26:11.217Z,4.25
2023-02-26T18:28:38.722Z,4.63
2023-02-26T18:31:09.198Z,5.45
2023-02-26T18:33:38.523Z,4.20
2023-02-26T18:36:06.550Z,5.00
2023-02-26T18:38:34.504Z,4.53
2023-02-26T18:41:02.656Z,5.95
2023-02-26T18:43:30.169Z,4.00
2023-02-26T18:46:01.350Z,4.63
2023-02-26T18:48:30.609Z,4.57
2023-02-26T18:50:59.354Z,5.03
2023-02-26T18:53:27.560Z,4.60
2023-02-26T18:55:56.965Z,5.45
2023-02-26T18:58:24.686Z,3.33
2023-02-26T19:00:52.295Z,4.32
2023-02-26T19:03:19.851Z,7.05
2023-02-26T19:05:55.899Z,4.47
2023-02-26T19:08:23.437Z,5.18
2023-02-26T19:10:50.935Z,4.18
2023-02-26T19:13:18.458Z,4.82
2023-02-26T19:15:45.992Z,5.00
2023-02-26T19:18:13.564Z,3.47
2023-02-26T19:20:41.604Z,5.15
2023-02-26T19:23:10.479Z,3.20
2023-02-26T19:25:38.708Z,5.53
2023-02-26T19:28:07.140Z,3.47
2023-02-26T19:30:35.563Z,3.85
2023-02-26T19:33:03.247Z,3.30
2023-02-26T19:35:30.797Z,3.55
2023-02-26T19:37:58.335Z,2.97
2023-02-26T19:40:28.103Z,3.80
2023-02-26T19:42:55.791Z,3.05
2023-02-26T19:45:23.438Z,4.90
2023-02-26T19:47:50.931Z,3.63
2023-02-26T19:50:19.334Z,3.22
2023-02-26T19:52:46.863Z,5.45
2023-02-26T19:55:15.198Z,2.78
2023-02-26T19:57:44.019Z,4.75
2023-02-26T20:00:13.198Z,4.28
2023-02-26T20:02:40.838Z,3.95
2023-02-26T20:05:11.414Z,4.28
2023-02-26T20:07:38.919Z,3.67
2023-02-26T20:10:06.994Z,3.72
2023-02-26T20:12:34.494Z,3.85
2023-02-26T20:15:03.460Z,3.03
2023-02-26T20:17:30.966Z,3.17
2023-02-26T20:19:58.454Z,4.88
2023-02-26T20:22:25.971Z,3.50
2023-02-26T20:24:53.536Z,5.35
2023-02-26T20:27:21.385Z,4.93
2023-02-26T20:29:50.828Z,4.72
2023-02-26T20:32:19.798Z,4.60
2023-02-26T20:34:47.697Z,4.72
2023-02-26T20:37:15.169Z,3.80
2023-02-26T20:39:42.986Z,4.55
2023-02-26T20:42:10.553Z,3.45
2023-02-26T20:44:38.050Z,3.50
2023-02-26T20:47:05.596Z,4.50
2023-02-26T20:49:34.557Z,4.40
2023-02-26T20:52:02.099Z,3.42
2023-02-26T20:54:29.598Z,4.18
2023-02-26T20:56:57.121Z,8.07
2023-02-26T20:59:24.727Z,3.78
2023-02-26T21:01:53.679Z,5.25
2023-02-26T21:04:21.347Z,5.75
2023-02-26T21:06:50.439Z,3.45
2023-02-26T21:09:17.936Z,2.95
2023-02-26T21:11:45.449Z,4.05
2023-02-26T21:14:13.193Z,5.35
2023-02-26T21:16:41.379Z,5.18
2023-02-26T21:19:09.203Z,9.13
2023-02-26T21:21:36.711Z,7.10
2023-02-26T21:24:06.053Z,8.15
2023-02-26T21:26:35.021Z,6.65
2023-02-26T21:29:04.803Z,3.75
2023-02-26T21:31:32.342Z,5.38
2023-02-26T21:34:04.719Z,5.35
2023-02-26T21:39:13.497Z,5.30
2023-02-26T21:41:40.976Z,4.78
2023-02-26T21:44:08.519Z,3.90
2023-02-26T21:46:36.063Z,6.32
2023-02-26T21:49:03.586Z,6.30
2023-02-26T21:51:31.093Z,5.55
2023-02-26T21:53:58.590Z,5.45
2023-02-26T21:56:27.461Z,5.22
2023-02-26T21:58:55.718Z,6.75
2023-02-26T22:01:23.347Z,7.90
2023-02-26T22:03:50.856Z,7.47
2023-02-26T22:06:18.566Z,7.13
2023-02-26T22:08:46.097Z,7.65
2023-02-26T22:11:13.635Z,4.75
2023-02-26T22:13:42.549Z,5.68
2023-02-26T22:16:10.495Z,5.97
2023-02-26T22:18:38.138Z,7.00
2023-02-26T22:21:05.864Z,7.28
2023-02-26T22:23:33.395Z,8.23
2023-02-26T22:26:01.427Z,6.78
2023-02-26T22:28:28.944Z,7.50
2023-02-26T22:30:58.093Z,7.63
2023-02-26T22:33:25.843Z,7.18
2023-02-26T22:35:56.061Z,7.60
2023-02-26T22:38:23.952Z,11.18
2023-02-26T22:40:53.920Z,7.88
2023-02-26T22:43:21.480Z,7.63
2023-02-26T22:45:49.698Z,7.68
2023-02-26T22:48:18.576Z,6.10
2023-02-26T22:50:46.107Z,5.47
2023-02-26T22:53:13.596Z,5.25
2023-02-26T22:55:41.099Z,8.23
2023-02-26T22:58:08.625Z,5.68
2023-02-26T23:00:36.176Z,6.95
2023-02-26T23:03:03.683Z,5.78
2023-02-26T23:05:32.493Z,7.88
2023-02-26T23:08:00.010Z,6.78
2023-02-26T23:10:27.535Z,7.05
2023-02-26T23:12:56.253Z,6.93
2023-02-26T23:15:23.749Z,8.45
2023-02-26T23:17:51.321Z,7.72
2023-02-26T23:20:18.827Z,10.27
2023-02-26T23:22:47.711Z,8.35
2023-02-26T23:25:15.225Z,10.30
2023-02-26T23:27:43.099Z,7.80
2023-02-26T23:30:11.052Z,10.85
2023-02-26T23:32:38.624Z,12.00
2023-02-26T23:35:06.506Z,12.85
2023-02-26T23:37:34.009Z,10.55
2023-02-26T23:40:03.827Z,9.98
2023-02-26T23:42:31.368Z,8.60
2023-02-26T23:44:58.877Z,8.82
2023-02-26T23:47:26.397Z,7.95
2023-02-26T23:49:53.976Z,8.13
2023-02-26T23:52:21.478Z,11.15
2023-02-26T23:54:48.921Z,10.52
2023-02-26T23:57:17.788Z,6.80
2023-02-26T23:59:45.255Z,7.47
